Thunder radar more information blitzortung!


Radar de pluja more information rain snow radar


Visita la nostra xarxa de llocs de meteo:

Template documentation
and downloads

And another site



No particular awareness of the weather is required.    There are no Weather-warnings

Pagina Historial Weather Underground text

Diari Resum Novembre 25, 2017 Unitats:  Mètric    Imperial   Tant
« Previous Dia
SegĂźent Dia »
Diari Setmana Mensual Anual Personalitzada
  Maxima: Minima: Media:
Temperatura: 16.3 °C 5.3 °C 12.1 °C
Punt de rosada: 8.1 °C -3.9 °C 4.1 °C
Humitat: 66 % 49 % 58 %
Wind Speed: 22.2 km/h 0.0 km/h 4.5 km/h
RĂ fegues de vent: 22.2 km/h - -
Vent:- - SW
Pression baro: 1026.0 hPa 1015.8 hPa -
Precipitacions: 0.0 mm    
Historical Graphs
 
 
Dades de taula per Novembre 25, 2017
Temps Temperatura Punt de rosada Pression baro Vent Wind Speed RĂ fegues de vent Humitat Rainfall Rate (Hourly)
00:00 9.6 °C 2.9 °C 1015.8 hPa Calm   3.2 km/h 63 % 0.0 mm
00:04 12.9 °C 3.0 °C 1018.8 hPa SW 1.9 km/h   51 % 0.0 mm
00:10 9.6 °C 2.9 °C 1015.8 hPa NNW 3.2 km/h 4.8 km/h 63 % 0.0 mm
00:20 9.0 °C 2.6 °C 1015.8 hPa North 1.6 km/h 3.2 km/h 64 % 0.0 mm
00:30 9.4 °C 2.7 °C 1015.8 hPa NNE 3.2 km/h 4.8 km/h 63 % 0.0 mm
00:40 9.6 °C 2.9 °C 1015.8 hPa SW 1.6 km/h 3.2 km/h 63 % 0.0 mm
00:50 10.1 °C 3.4 °C 1015.8 hPa SW 3.2 km/h 4.8 km/h 63 % 0.0 mm
01:00 10.7 °C 3.9 °C 1015.8 hPa WSW 4.8 km/h 4.8 km/h 63 % 0.0 mm
01:10 10.9 °C 4.1 °C 1016.8 hPa WSW 3.2 km/h 3.2 km/h 63 % 0.0 mm
01:20 10.5 °C 3.7 °C 1015.8 hPa Calm   1.6 km/h 63 % 0.0 mm
01:30 10.2 °C 3.4 °C 1015.8 hPa SW 1.6 km/h 3.2 km/h 63 % 0.0 mm
01:40 10.1 °C 3.4 °C 1015.8 hPa WSW 1.6 km/h 3.2 km/h 63 % 0.0 mm
01:50 10.2 °C 3.4 °C 1015.8 hPa WSW 1.6 km/h 3.2 km/h 63 % 0.0 mm
02:00 10.7 °C 3.9 °C 1015.8 hPa WSW 3.2 km/h 4.8 km/h 63 % 0.0 mm
02:10 11.0 °C 4.0 °C 1016.8 hPa SW 3.2 km/h 3.2 km/h 62 % 0.0 mm
08:11 11.1 °C 4.1 °C 1016.8 hPa WSW 3.7 km/h 3.7 km/h 62 % 0.0 mm
08:12 11.1 °C 4.1 °C 1016.8 hPa West 3.9 km/h 3.9 km/h 62 % 0.0 mm
08:13 11.1 °C 4.1 °C 1016.8 hPa West 3.7 km/h 3.7 km/h 62 % 0.0 mm
08:18 11.5 °C 4.4 °C 1016.8 hPa West 3.7 km/h 3.7 km/h 62 % 0.0 mm
08:23 11.8 °C 4.5 °C 1016.8 hPa WNW 1.9 km/h 1.9 km/h 61 % 0.0 mm
08:28 11.8 °C 4.5 °C 1016.8 hPa SW 3.5 km/h   61 % 0.0 mm
08:33 11.2 °C 3.9 °C 1016.8 hPa West 3.7 km/h 3.7 km/h 61 % 0.0 mm
08:38 11.1 °C 3.8 °C 1016.8 hPa West 4.2 km/h 4.2 km/h 61 % 0.0 mm
08:43 11.6 °C 4.3 °C 1016.8 hPa WSW 5.6 km/h 5.6 km/h 61 % 0.0 mm
08:53 12.7 °C 5.1 °C 1016.8 hPa West 3.9 km/h 3.9 km/h 60 % 0.0 mm
08:58 12.6 °C 5.1 °C 1016.8 hPa SW 3.9 km/h 3.9 km/h 60 % 0.0 mm
09:03 12.0 °C 4.4 °C 1017.8 hPa SW 3.7 km/h 3.7 km/h 60 % 0.0 mm
09:08 11.5 °C 4.0 °C 1017.8 hPa WSW 3.9 km/h 3.9 km/h 60 % 0.0 mm
09:13 11.5 °C 4.0 °C 1017.8 hPa WSW 4.2 km/h 4.2 km/h 60 % 0.0 mm
09:18 11.6 °C 4.3 °C 1017.8 hPa Calm     61 % 0.0 mm
09:23 11.9 °C 4.6 °C 1017.8 hPa WNW 3.9 km/h 3.9 km/h 61 % 0.0 mm
09:28 12.1 °C 4.8 °C 1017.8 hPa SW 4.2 km/h 4.2 km/h 61 % 0.0 mm
09:33 11.5 °C 4.2 °C 1017.8 hPa ENE 3.7 km/h 3.7 km/h 61 % 0.0 mm
09:38 10.9 °C 3.7 °C 1017.8 hPa ENE 1.9 km/h 1.9 km/h 61 % 0.0 mm
09:43 10.9 °C 3.9 °C 1017.8 hPa ENE 1.9 km/h   62 % 0.0 mm
09:48 10.6 °C 3.6 °C 1017.8 hPa ENE 4.2 km/h 4.2 km/h 62 % 0.0 mm
09:53 10.3 °C 3.6 °C 1017.8 hPa ENE 5.6 km/h 5.6 km/h 63 % 0.0 mm
09:58 10.1 °C 3.4 °C 1017.8 hPa ENE 1.9 km/h 1.9 km/h 63 % 0.0 mm
10:03 10.0 °C 3.3 °C 1017.8 hPa SW 3.7 km/h 3.7 km/h 63 % 0.0 mm
10:08 9.7 °C 3.0 °C 1017.8 hPa WSW 5.6 km/h 5.6 km/h 63 % 0.0 mm
10:13 9.6 °C 2.9 °C 1017.8 hPa WSW 5.8 km/h 5.8 km/h 63 % 0.0 mm
10:18 9.8 °C 3.3 °C 1016.8 hPa SW 5.6 km/h 5.6 km/h 64 % 0.0 mm
10:23 10.0 °C 3.7 °C 1016.8 hPa WSW 3.9 km/h   65 % 0.0 mm
10:28 10.4 °C 4.1 °C 1016.8 hPa West 3.7 km/h 3.7 km/h 65 % 0.0 mm
10:33 11.3 °C 4.7 °C 1017.8 hPa WNW 1.9 km/h 2.3 km/h 64 % 0.0 mm
10:43 12.3 °C 5.4 °C 1017.8 hPa WNW 1.9 km/h   63 % 0.0 mm
10:48 12.1 °C 5.5 °C 1017.8 hPa Calm     64 % 0.0 mm
10:53 11.9 °C 5.3 °C 1017.8 hPa West 2.3 km/h   64 % 0.0 mm
10:58 12.1 °C 5.5 °C 1017.8 hPa WNW 1.9 km/h   64 % 0.0 mm
11:03 12.4 °C 5.6 °C 1017.8 hPa SW 3.7 km/h 3.7 km/h 63 % 0.0 mm
11:08 12.3 °C 5.7 °C 1017.8 hPa SW 5.6 km/h 5.6 km/h 64 % 0.0 mm
11:13 12.2 °C 5.3 °C 1017.8 hPa WSW 5.6 km/h 5.6 km/h 63 % 0.0 mm
11:18 12.2 °C 5.3 °C 1018.8 hPa SW 3.9 km/h 3.9 km/h 63 % 0.0 mm
11:23 12.6 °C 5.5 °C 1018.8 hPa South 5.6 km/h 5.6 km/h 62 % 0.0 mm
11:29 12.8 °C 5.7 °C 1018.8 hPa South 9.3 km/h 9.3 km/h 62 % 0.0 mm
11:34 12.9 °C 5.8 °C 1017.8 hPa SW 6.4 km/h 6.4 km/h 62 % 0.0 mm
11:39 13.1 °C 6.0 °C 1017.8 hPa West 7.4 km/h 7.4 km/h 62 % 0.0 mm
11:44 13.3 °C 5.9 °C 1017.8 hPa WNW 1.9 km/h 1.9 km/h 61 % 0.0 mm
11:49 13.4 °C 6.0 °C 1017.8 hPa SW 3.7 km/h 3.7 km/h 61 % 0.0 mm
11:54 13.6 °C 6.2 °C 1017.8 hPa WNW 3.5 km/h 3.5 km/h 61 % 0.0 mm
11:59 13.9 °C 6.3 °C 1017.8 hPa WSW 5.3 km/h 5.3 km/h 60 % 0.0 mm
12:04 13.9 °C 6.3 °C 1017.8 hPa West 5.6 km/h 5.6 km/h 60 % 0.0 mm
12:09 13.9 °C 6.3 °C 1017.8 hPa NNW 3.7 km/h 3.7 km/h 60 % 0.0 mm
12:14 14.0 °C 6.3 °C 1017.8 hPa ESE 5.6 km/h 5.6 km/h 60 % 0.0 mm
12:19 14.1 °C 6.4 °C 1018.8 hPa WSW 7.4 km/h 7.4 km/h 60 % 0.0 mm
12:24 14.1 °C 6.4 °C 1018.8 hPa SW 5.6 km/h 5.6 km/h 60 % 0.0 mm
12:29 14.1 °C 6.4 °C 1018.8 hPa East 4.2 km/h 4.2 km/h 60 % 0.0 mm
12:30 14.1 °C 6.4 °C 1018.8 hPa East 5.6 km/h 5.6 km/h 60 % 0.0 mm
12:35 14.2 °C 6.6 °C 1018.8 hPa ESE 4.2 km/h 4.2 km/h 60 % 0.0 mm
12:40 14.2 °C 6.6 °C 1018.8 hPa West 9.0 km/h 9.0 km/h 60 % 0.0 mm
12:45 14.2 °C 6.6 °C 1018.8 hPa WNW 5.6 km/h 5.6 km/h 60 % 0.0 mm
12:50 14.3 °C 6.6 °C 1018.8 hPa WSW 3.7 km/h 3.7 km/h 60 % 0.0 mm
12:52 14.3 °C 6.6 °C 1018.8 hPa WSW 5.6 km/h 5.8 km/h 60 % 0.0 mm
12:57 14.2 °C 6.8 °C 1018.8 hPa West 7.4 km/h 7.4 km/h 61 % 0.0 mm
13:02 14.2 °C 6.8 °C 1018.8 hPa SSW 5.6 km/h 5.6 km/h 61 % 0.0 mm
13:07 14.2 °C 6.8 °C 1018.8 hPa West 5.6 km/h 5.6 km/h 61 % 0.0 mm
13:12 14.4 °C 6.9 °C 1018.8 hPa SW 4.7 km/h 4.7 km/h 61 % 0.0 mm
13:17 14.7 °C 7.3 °C 1018.8 hPa WSW 5.6 km/h 5.6 km/h 61 % 0.0 mm
13:22 15.0 °C 7.6 °C 1018.8 hPa WSW 6.1 km/h 6.1 km/h 61 % 0.0 mm
13:27 15.4 °C 7.9 °C 1018.8 hPa WNW 7.6 km/h 7.6 km/h 61 % 0.0 mm
13:32 15.6 °C 7.8 °C 1018.8 hPa West 6.9 km/h 6.9 km/h 60 % 0.0 mm
13:37 15.8 °C 8.1 °C 1018.8 hPa WNW 5.6 km/h 5.6 km/h 60 % 0.0 mm
13:42 15.7 °C 7.9 °C 1018.8 hPa WSW 7.4 km/h 7.4 km/h 60 % 0.0 mm
13:47 15.6 °C 7.6 °C 1017.8 hPa WNW 7.4 km/h 7.4 km/h 59 % 0.0 mm
13:52 15.5 °C 7.5 °C 1017.8 hPa West 9.3 km/h 9.3 km/h 59 % 0.0 mm
13:57 15.5 °C 7.5 °C 1017.8 hPa SW 3.7 km/h 3.9 km/h 59 % 0.0 mm
14:02 15.6 °C 7.6 °C 1017.8 hPa SW 4.7 km/h 4.7 km/h 59 % 0.0 mm
14:07 15.6 °C 7.6 °C 1017.8 hPa West 5.6 km/h 5.6 km/h 59 % 0.0 mm
14:12 15.6 °C 7.6 °C 1017.8 hPa West 4.2 km/h 4.2 km/h 59 % 0.0 mm
14:17 15.5 °C 7.5 °C 1017.8 hPa WSW 2.3 km/h 2.3 km/h 59 % 0.0 mm
14:22 15.6 °C 7.6 °C 1017.8 hPa SW 3.7 km/h 3.7 km/h 59 % 0.0 mm
14:27 15.7 °C 7.7 °C 1017.8 hPa SW 3.9 km/h 3.9 km/h 59 % 0.0 mm
14:28 15.7 °C 7.7 °C 1017.8 hPa SW 5.0 km/h 5.0 km/h 59 % 0.0 mm
14:33 15.7 °C 7.7 °C 1017.8 hPa NW 3.7 km/h 3.7 km/h 59 % 0.0 mm
14:38 15.6 °C 7.6 °C 1017.8 hPa NW 2.3 km/h   59 % 0.0 mm
14:43 15.6 °C 7.6 °C 1017.8 hPa North 3.7 km/h 3.7 km/h 59 % 0.0 mm
14:48 15.7 °C 7.7 °C 1017.8 hPa ENE 3.7 km/h 3.7 km/h 59 % 0.0 mm
14:53 15.7 °C 7.7 °C 1017.8 hPa ESE 5.8 km/h 5.8 km/h 59 % 0.0 mm
14:58 15.7 °C 7.4 °C 1017.8 hPa NE 1.9 km/h   58 % 0.0 mm
15:03 15.7 °C 7.4 °C 1018.8 hPa SE 3.7 km/h 3.7 km/h 58 % 0.0 mm
15:08 15.6 °C 7.3 °C 1018.8 hPa East 3.7 km/h 3.9 km/h 58 % 0.0 mm
15:13 15.6 °C 7.3 °C 1018.8 hPa East 3.7 km/h 3.7 km/h 58 % 0.0 mm
15:18 15.5 °C 7.3 °C 1018.8 hPa ESE 4.2 km/h 4.2 km/h 58 % 0.0 mm
15:23 15.4 °C 7.2 °C 1018.8 hPa ESE 1.9 km/h 1.9 km/h 58 % 0.0 mm
15:28 15.6 °C 7.3 °C 1018.8 hPa Calm     58 % 0.0 mm
15:33 15.7 °C 7.4 °C 1018.8 hPa Calm     58 % 0.0 mm
15:38 15.9 °C 7.7 °C 1018.8 hPa Calm     58 % 0.0 mm
15:43 15.9 °C 7.7 °C 1018.8 hPa SSE 3.7 km/h 3.7 km/h 58 % 0.0 mm
15:46 16.1 °C 7.8 °C 1018.8 hPa SSE 1.9 km/h   58 % 0.0 mm
15:51 16.3 °C 8.0 °C 1018.8 hPa ESE 3.7 km/h 3.7 km/h 58 % 0.0 mm
15:56 16.0 °C 7.5 °C 1018.8 hPa ENE 5.6 km/h 5.6 km/h 57 % 0.0 mm
16:01 16.0 °C 7.5 °C 1018.8 hPa ENE 5.6 km/h 5.6 km/h 57 % 0.0 mm
16:06 16.0 °C 7.7 °C 1018.8 hPa ESE 3.7 km/h 3.7 km/h 58 % 0.0 mm
16:11 16.0 °C 7.5 °C 1018.8 hPa ESE 5.6 km/h 5.6 km/h 57 % 0.0 mm
16:16 15.9 °C 7.7 °C 1019.9 hPa East 3.7 km/h 3.7 km/h 58 % 0.0 mm
16:21 15.8 °C 7.6 °C 1019.9 hPa East 4.2 km/h 4.2 km/h 58 % 0.0 mm
16:26 15.7 °C 7.4 °C 1019.9 hPa SE 3.7 km/h 3.7 km/h 58 % 0.0 mm
16:31 15.7 °C 7.4 °C 1019.9 hPa ESE 7.4 km/h 7.4 km/h 58 % 0.0 mm
16:36 15.6 °C 7.1 °C 1019.9 hPa ESE 5.6 km/h 5.6 km/h 57 % 0.0 mm
16:41 15.6 °C 7.1 °C 1019.9 hPa SE 3.7 km/h 3.9 km/h 57 % 0.0 mm
16:46 15.4 °C 6.9 °C 1019.9 hPa ESE 6.1 km/h 6.1 km/h 57 % 0.0 mm
16:51 15.2 °C 6.7 °C 1019.9 hPa East 9.3 km/h 9.3 km/h 57 % 0.0 mm
16:56 15.0 °C 6.8 °C 1019.9 hPa ENE 5.8 km/h 5.8 km/h 58 % 0.0 mm
17:01 14.9 °C 6.7 °C 1019.9 hPa ENE 7.4 km/h 7.4 km/h 58 % 0.0 mm
17:06 14.7 °C 6.8 °C 1019.9 hPa NNE 7.4 km/h 7.4 km/h 59 % 0.0 mm
17:11 14.5 °C 6.8 °C 1019.9 hPa ESE 7.4 km/h 7.4 km/h 60 % 0.0 mm
17:16 14.4 °C 6.9 °C 1019.9 hPa NNE 7.4 km/h 7.4 km/h 61 % 0.0 mm
17:21 14.3 °C 6.9 °C 1019.9 hPa NW 3.2 km/h 3.2 km/h 61 % 0.0 mm
17:26 14.2 °C 6.8 °C 1019.9 hPa NNW 7.4 km/h 7.4 km/h 61 % 0.0 mm
17:31 14.3 °C 7.1 °C 1019.9 hPa East 7.4 km/h 7.4 km/h 62 % 0.0 mm
17:36 14.5 °C 7.3 °C 1019.9 hPa ENE 9.3 km/h 9.3 km/h 62 % 0.0 mm
17:41 14.4 °C 7.2 °C 1019.9 hPa NE 3.7 km/h   62 % 0.0 mm
17:46 14.2 °C 7.3 °C 1019.9 hPa East 5.6 km/h 5.6 km/h 63 % 0.0 mm
17:51 14.2 °C 7.0 °C 1019.9 hPa WNW 3.7 km/h 3.7 km/h 62 % 0.0 mm
17:56 14.0 °C 7.1 °C 1019.9 hPa North 1.9 km/h 1.9 km/h 63 % 0.0 mm
18:01 14.0 °C 7.1 °C 1019.9 hPa NW 3.7 km/h 3.7 km/h 63 % 0.0 mm
18:06 13.8 °C 6.9 °C 1019.9 hPa NNE 1.9 km/h 1.9 km/h 63 % 0.0 mm
18:11 13.6 °C 6.9 °C 1019.9 hPa ENE 1.9 km/h 1.9 km/h 64 % 0.0 mm
18:16 13.4 °C 6.7 °C 1020.9 hPa SW 3.7 km/h 3.7 km/h 64 % 0.0 mm
18:21 13.1 °C 6.4 °C 1020.9 hPa WSW 3.7 km/h 4.2 km/h 64 % 0.0 mm
18:25 8.0 °C -1.8 °C 1022.9 hPa SW 1.6 km/h 3.2 km/h 50 % 0.0 mm
18:26 13.0 °C 6.3 °C 1020.9 hPa West 2.3 km/h 2.3 km/h 64 % 0.0 mm
18:31 13.0 °C 6.6 °C 1021.9 hPa West 1.9 km/h 1.9 km/h 65 % 0.0 mm
18:33 13.0 °C 6.6 °C 1021.9 hPa West 2.6 km/h 2.6 km/h 65 % 0.0 mm
18:35 7.7 °C -2.1 °C 1023.9 hPa Calm     50 % 0.0 mm
18:43 13.0 °C 6.6 °C 1021.9 hPa West 3.7 km/h 3.7 km/h 65 % 0.0 mm
18:45 7.6 °C -2.2 °C 1023.9 hPa Calm   3.2 km/h 50 % 0.0 mm
18:48 12.9 °C 6.5 °C 1021.9 hPa WNW 3.9 km/h 3.9 km/h 65 % 0.0 mm
18:53 13.0 °C 6.6 °C 1021.9 hPa WNW 3.7 km/h 3.7 km/h 65 % 0.0 mm
18:55 7.7 °C -2.1 °C 1024.9 hPa Calm   4.8 km/h 50 % 0.0 mm
18:58 13.1 °C 6.7 °C 1021.9 hPa West 4.2 km/h 4.2 km/h 65 % 0.0 mm
19:03 13.1 °C 6.9 °C 1021.9 hPa WSW 1.9 km/h 1.9 km/h 66 % 0.0 mm
19:05 7.6 °C -2.2 °C 1023.9 hPa WSW 1.6 km/h 3.2 km/h 50 % 0.0 mm
19:08 13.0 °C 6.8 °C 1021.9 hPa West 1.9 km/h   66 % 0.0 mm
19:13 13.0 °C 6.8 °C 1021.9 hPa SW 1.9 km/h   66 % 0.0 mm
19:15 7.4 °C -2.3 °C 1023.9 hPa WSW 1.6 km/h 3.2 km/h 50 % 0.0 mm
19:18 13.0 °C 6.8 °C 1021.9 hPa South 2.6 km/h   66 % 0.0 mm
19:23 12.9 °C 6.5 °C 1021.9 hPa SW 3.7 km/h 3.7 km/h 65 % 0.0 mm
19:25 7.3 °C -2.4 °C 1024.9 hPa WSW 1.6 km/h 3.2 km/h 50 % 0.0 mm
19:28 12.9 °C 6.5 °C 1021.9 hPa SW 3.7 km/h 3.7 km/h 65 % 0.0 mm
19:33 12.9 °C 6.5 °C 1021.9 hPa WSW 6.9 km/h 6.9 km/h 65 % 0.0 mm
19:35 7.3 °C -2.4 °C 1023.9 hPa WSW 3.2 km/h 3.2 km/h 50 % 0.0 mm
19:38 13.0 °C 6.6 °C 1021.9 hPa WSW 5.6 km/h 5.6 km/h 65 % 0.0 mm
19:43 13.0 °C 6.6 °C 1021.9 hPa SSW 3.9 km/h 3.9 km/h 65 % 0.0 mm
19:45 7.3 °C -2.4 °C 1023.9 hPa Calm   3.2 km/h 50 % 0.0 mm
19:48 13.1 °C 6.7 °C 1021.9 hPa SW 5.6 km/h 5.6 km/h 65 % 0.0 mm
19:53 13.1 °C 6.7 °C 1021.9 hPa West 7.4 km/h 7.4 km/h 65 % 0.0 mm
19:55 7.2 °C -2.6 °C 1023.9 hPa Calm   3.2 km/h 50 % 0.0 mm
19:58 13.0 °C 6.3 °C 1021.9 hPa West 3.7 km/h 3.7 km/h 64 % 0.0 mm
20:05 7.1 °C -2.6 °C 1024.9 hPa WSW 1.6 km/h 1.6 km/h 50 % 0.0 mm
20:08 12.9 °C 5.8 °C 1021.9 hPa SW 1.9 km/h   62 % 0.0 mm
20:13 12.8 °C 5.4 °C 1021.9 hPa West 7.4 km/h 7.4 km/h 61 % 0.0 mm
20:15 7.1 °C -2.6 °C 1024.9 hPa Calm   1.6 km/h 50 % 0.0 mm
20:18 12.8 °C 5.2 °C 1022.9 hPa West 8.7 km/h 8.7 km/h 60 % 0.0 mm
20:23 12.8 °C 4.5 °C 1022.9 hPa WSW 9.3 km/h 9.3 km/h 57 % 0.0 mm
20:25 7.1 °C -2.6 °C 1024.9 hPa Calm   3.2 km/h 50 % 0.0 mm
20:28 12.8 °C 4.0 °C 1022.9 hPa West 11.1 km/h 11.1 km/h 55 % 0.0 mm
20:33 12.6 °C 3.8 °C 1022.9 hPa WSW 7.4 km/h 7.4 km/h 55 % 0.0 mm
20:35 7.0 °C -2.7 °C 1026.0 hPa West 1.6 km/h 3.2 km/h 50 % 0.0 mm
20:38 12.3 °C 3.2 °C 1022.9 hPa SW 5.6 km/h 5.6 km/h 54 % 0.0 mm
20:43 12.4 °C 3.3 °C 1022.9 hPa West 11.9 km/h 11.9 km/h 54 % 0.0 mm
20:45 6.9 °C -2.8 °C 1026.0 hPa Calm   3.2 km/h 50 % 0.0 mm
20:48 12.5 °C 3.2 °C 1021.9 hPa NW 9.3 km/h 9.3 km/h 53 % 0.0 mm
20:53 12.4 °C 2.8 °C 1021.9 hPa WSW 11.1 km/h 11.1 km/h 52 % 0.0 mm
20:55 7.0 °C -2.7 °C 1024.9 hPa Calm   3.2 km/h 50 % 0.0 mm
20:58 12.3 °C 2.7 °C 1021.9 hPa West 5.6 km/h 6.4 km/h 52 % 0.0 mm
21:03 12.2 °C 2.6 °C 1022.9 hPa West 9.3 km/h 9.3 km/h 52 % 0.0 mm
21:05 7.0 °C -2.7 °C 1026.0 hPa Calm   3.2 km/h 50 % 0.0 mm
21:08 12.2 °C 2.6 °C 1022.9 hPa West 9.3 km/h 9.3 km/h 52 % 0.0 mm
21:13 12.1 °C 2.3 °C 1022.9 hPa WSW 9.3 km/h 9.3 km/h 51 % 0.0 mm
21:15 7.0 °C -2.7 °C 1026.0 hPa West 1.6 km/h 4.8 km/h 50 % 0.0 mm
21:18 12.0 °C 2.2 °C 1022.9 hPa NNW 9.3 km/h 9.3 km/h 51 % 0.0 mm
21:23 11.9 °C 2.1 °C 1022.9 hPa SW 9.3 km/h 9.3 km/h 51 % 0.0 mm
21:25 7.0 °C -2.7 °C 1026.0 hPa Calm   3.2 km/h 50 % 0.0 mm
21:29 11.7 °C 1.9 °C 1022.9 hPa West 9.3 km/h 9.3 km/h 51 % 0.0 mm
21:30 11.7 °C 1.9 °C 1022.9 hPa WSW 22.2 km/h 22.2 km/h 51 % 0.0 mm
21:35 11.7 °C 1.6 °C 1022.9 hPa WNW 7.4 km/h 7.4 km/h 50 % 0.0 mm
21:40 11.5 °C 1.7 °C 1022.9 hPa West 7.6 km/h 7.6 km/h 51 % 0.0 mm
21:45 11.4 °C 1.3 °C 1022.9 hPa West 5.6 km/h 5.8 km/h 50 % 0.0 mm
21:50 11.3 °C 1.2 °C 1022.9 hPa SSW 14.8 km/h 14.8 km/h 50 % 0.0 mm
21:55 11.2 °C 1.2 °C 1022.9 hPa WSW 13.0 km/h 13.0 km/h 50 % 0.0 mm
22:00 11.1 °C 1.1 °C 1022.9 hPa West 7.4 km/h 7.4 km/h 50 % 0.0 mm
22:05 11.1 °C 1.1 °C 1023.9 hPa West 11.1 km/h 11.1 km/h 50 % 0.0 mm
22:10 11.0 °C 0.9 °C 1023.9 hPa WSW 11.1 km/h 11.1 km/h 50 % 0.0 mm
22:15 10.8 °C 0.5 °C 1023.9 hPa West 9.3 km/h 9.3 km/h 49 % 0.0 mm
22:20 10.6 °C 0.3 °C 1023.9 hPa SW 6.1 km/h 6.1 km/h 49 % 0.0 mm
22:25 10.5 °C 0.2 °C 1023.9 hPa SW 7.4 km/h 7.4 km/h 49 % 0.0 mm
22:30 10.3 °C 0.1 °C 1023.9 hPa West 7.4 km/h 7.4 km/h 49 % 0.0 mm
22:35 10.3 °C 0.1 °C 1023.9 hPa West 7.4 km/h 7.4 km/h 49 % 0.0 mm
22:40 10.2 °C -0.1 °C 1023.9 hPa SW 9.7 km/h 9.7 km/h 49 % 0.0 mm
22:45 10.1 °C -0.2 °C 1023.9 hPa SW 5.6 km/h 5.6 km/h 49 % 0.0 mm
22:50 9.9 °C -0.3 °C 1023.9 hPa SW 5.6 km/h 5.6 km/h 49 % 0.0 mm
22:55 9.8 °C -0.4 °C 1023.9 hPa WSW 5.6 km/h 5.6 km/h 49 % 0.0 mm
22:56 9.8 °C -0.4 °C 1023.9 hPa WSW 5.6 km/h 5.6 km/h 49 % 0.0 mm
23:01 9.6 °C -0.6 °C 1022.9 hPa WSW 5.6 km/h 5.6 km/h 49 % 0.0 mm
23:05 5.5 °C -3.8 °C 1026.0 hPa NW 1.6 km/h 1.6 km/h 51 % 0.0 mm
23:06 9.4 °C -0.8 °C 1022.9 hPa SW 1.9 km/h   49 % 0.0 mm
23:11 9.3 °C -0.9 °C 1022.9 hPa SW 3.7 km/h   49 % 0.0 mm
23:15 5.4 °C -3.9 °C 1026.0 hPa NNW 1.6 km/h 3.2 km/h 51 % 0.0 mm
23:16 9.2 °C -1.0 °C 1023.9 hPa WNW 2.6 km/h 2.6 km/h 49 % 0.0 mm
23:21 9.1 °C -1.1 °C 1023.9 hPa SSW 3.7 km/h 3.7 km/h 49 % 0.0 mm
23:25 5.6 °C -3.8 °C 1026.0 hPa North 1.6 km/h 6.4 km/h 51 % 0.0 mm
23:26 9.0 °C -1.2 °C 1023.9 hPa West 3.7 km/h 3.7 km/h 49 % 0.0 mm
23:31 8.9 °C -1.3 °C 1023.9 hPa West 3.9 km/h 3.9 km/h 49 % 0.0 mm
23:35 5.5 °C -3.6 °C 1026.0 hPa NNE 1.6 km/h 4.8 km/h 52 % 0.0 mm
23:36 8.7 °C -1.4 °C 1023.9 hPa WSW 3.7 km/h 3.7 km/h 49 % 0.0 mm
23:41 8.6 °C -1.5 °C 1023.9 hPa WSW 3.9 km/h 3.9 km/h 49 % 0.0 mm
23:45 5.4 °C -3.7 °C 1026.0 hPa NNE 1.6 km/h 3.2 km/h 52 % 0.0 mm
23:46 8.6 °C -1.3 °C 1023.9 hPa WSW 5.6 km/h 5.6 km/h 50 % 0.0 mm
23:51 8.6 °C -1.3 °C 1023.9 hPa West 1.9 km/h   50 % 0.0 mm
23:55 5.3 °C -3.8 °C 1026.0 hPa North 1.6 km/h 8.0 km/h 52 % 0.0 mm
23:56 8.4 °C -1.4 °C 1023.9 hPa SW 3.7 km/h 3.7 km/h 50 % 0.0 mm
Meteo Sesrovires
Elogis d' Weather Underground - 3.75 mb

Guio original per  Jim McMurry - jmcmurry@mwt.net Adaptat per a la plantilla per  Wim van der Kuil - Leuven-Template.eu

Trobareu la nostra informacio del temps tambe a:

Weather Underground

AWEKAS